createdAt,value
2018-08-20T00:02:26.147Z,62.20
2018-08-20T00:04:55.569Z,62.40
2018-08-20T00:07:24.717Z,62.60
2018-08-20T00:09:54.014Z,62.80
2018-08-20T00:12:23.178Z,63.10
2018-08-20T00:14:53.817Z,62.80
2018-08-20T00:17:22.984Z,63.00
2018-08-20T00:19:52.188Z,62.80
2018-08-20T00:22:21.312Z,63.00
2018-08-20T00:25:07.637Z,63.20
2018-08-20T00:27:36.780Z,63.20
2018-08-20T00:30:08.905Z,63.50
2018-08-20T00:32:38.100Z,63.50
2018-08-20T00:35:07.380Z,63.80
2018-08-20T00:37:36.537Z,64.00
2018-08-20T00:40:06.074Z,64.70
2018-08-20T00:42:35.223Z,64.40
2018-08-20T00:45:06.137Z,64.50
2018-08-20T00:47:35.294Z,64.80
2018-08-20T00:50:05.250Z,65.30
2018-08-20T00:52:34.488Z,65.10
2018-08-20T00:55:03.670Z,65.40
2018-08-20T00:57:32.828Z,65.40
2018-08-20T01:00:01.997Z,65.50
2018-08-20T01:02:32.138Z,65.80
2018-08-20T01:05:02.051Z,65.70
2018-08-20T01:07:31.683Z,66.00
2018-08-20T01:10:00.883Z,66.10
2018-08-20T01:12:30.063Z,66.10
2018-08-20T01:14:59.255Z,66.20
2018-08-20T01:17:28.422Z,65.70
2018-08-20T01:19:57.617Z,67.20
2018-08-20T01:22:26.817Z,66.40
2018-08-20T01:24:55.973Z,66.60
2018-08-20T01:27:27.233Z,66.90
2018-08-20T01:29:56.404Z,66.90
2018-08-20T01:32:25.569Z,66.90
2018-08-20T01:34:54.719Z,67.10
2018-08-20T01:37:23.869Z,67.20
2018-08-20T01:39:53.108Z,67.40
2018-08-20T01:42:22.249Z,67.40
2018-08-20T01:44:51.420Z,67.40
2018-08-20T01:47:20.561Z,67.70
2018-08-20T01:49:49.809Z,67.70
2018-08-20T01:52:18.969Z,67.60
2018-08-20T01:54:48.133Z,67.70
2018-08-20T01:57:17.277Z,67.90
2018-08-20T01:59:46.429Z,67.80
2018-08-20T02:02:15.625Z,67.90
2018-08-20T02:04:44.788Z,67.90
2018-08-20T02:07:13.991Z,68.00
2018-08-20T02:09:43.158Z,68.00
2018-08-20T02:12:12.309Z,68.00
2018-08-20T02:14:41.476Z,68.10
2018-08-20T02:17:10.641Z,68.00
2018-08-20T02:19:39.793Z,68.20
2018-08-20T02:22:09.125Z,68.20
2018-08-20T02:24:38.293Z,68.30
2018-08-20T02:27:07.473Z,69.20
2018-08-20T02:29:36.621Z,68.40
2018-08-20T02:32:06.033Z,68.70
2018-08-20T02:34:35.184Z,69.00
2018-08-20T02:37:04.345Z,69.10
2018-08-20T02:39:33.510Z,68.90
2018-08-20T02:42:02.661Z,68.90
2018-08-20T02:44:38.097Z,69.20
2018-08-20T02:47:07.252Z,69.00
2018-08-20T02:49:36.405Z,69.30
2018-08-20T02:52:05.958Z,69.50
2018-08-20T02:54:35.112Z,69.40
2018-08-20T02:57:04.281Z,69.70
2018-08-20T02:59:33.447Z,69.50
2018-08-20T03:02:02.715Z,69.80
2018-08-20T03:04:31.853Z,69.60
2018-08-20T03:07:01.015Z,69.60
2018-08-20T03:09:30.188Z,69.60
2018-08-20T03:11:59.345Z,69.70
2018-08-20T03:14:28.561Z,69.60
2018-08-20T03:16:57.710Z,69.50
2018-08-20T03:19:26.863Z,69.50
2018-08-20T03:21:56.056Z,69.60
2018-08-20T03:24:25.197Z,69.50
2018-08-20T03:26:54.350Z,69.40
2018-08-20T03:29:23.520Z,69.40
2018-08-20T03:31:52.709Z,69.30
2018-08-20T03:34:22.026Z,69.50
2018-08-20T03:36:52.042Z,69.60
2018-08-20T03:39:21.195Z,69.20
2018-08-20T03:41:50.353Z,69.20
2018-08-20T03:44:19.495Z,69.20
2018-08-20T03:46:48.737Z,69.10
2018-08-20T03:49:17.932Z,70.10
2018-08-20T03:51:47.133Z,69.50
2018-08-20T03:54:16.325Z,69.40
2018-08-20T03:56:45.481Z,69.60
2018-08-20T03:59:32.833Z,69.50
2018-08-20T04:02:04.258Z,69.70
2018-08-20T04:04:33.506Z,69.90
2018-08-20T04:07:04.033Z,69.90
2018-08-20T04:09:33.825Z,69.80
2018-08-20T04:12:03.926Z,69.40
2018-08-20T04:14:33.104Z,69.10
2018-08-20T04:17:02.271Z,69.20
2018-08-20T04:19:31.428Z,68.70
2018-08-20T04:22:00.712Z,68.70
2018-08-20T04:24:29.866Z,68.40
2018-08-20T04:26:59.021Z,68.00
2018-08-20T04:29:28.181Z,68.00
2018-08-20T04:31:57.324Z,67.80
2018-08-20T04:34:26.493Z,67.60
2018-08-20T04:36:55.648Z,67.40
2018-08-20T04:39:24.805Z,67.50
2018-08-20T04:41:53.973Z,67.50
2018-08-20T04:44:23.117Z,67.30
2018-08-20T04:46:52.293Z,67.40
2018-08-20T04:49:21.449Z,67.60
2018-08-20T04:51:50.597Z,67.60
2018-08-20T04:54:19.774Z,67.60
2018-08-20T04:56:48.935Z,67.70
2018-08-20T04:59:18.101Z,67.90
2018-08-20T05:01:47.277Z,67.70
2018-08-20T05:04:16.531Z,67.60
2018-08-20T05:06:45.977Z,67.70
2018-08-20T05:09:15.141Z,67.60
2018-08-20T05:11:47.193Z,67.60
2018-08-20T05:14:16.399Z,67.80
2018-08-20T05:16:45.557Z,67.50
2018-08-20T05:19:14.765Z,67.80
2018-08-20T05:21:43.945Z,68.10
2018-08-20T05:24:13.095Z,68.50
2018-08-20T05:26:42.279Z,68.60
2018-08-20T05:29:11.439Z,68.80
2018-08-20T05:31:40.598Z,68.90
2018-08-20T05:34:09.767Z,69.20
2018-08-20T05:36:38.970Z,69.00
2018-08-20T05:39:10.473Z,69.20
2018-08-20T05:41:39.693Z,69.30
2018-08-20T05:44:08.829Z,69.60
2018-08-20T05:46:38.016Z,69.40
2018-08-20T05:49:07.225Z,68.90
2018-08-20T05:51:36.373Z,69.40
2018-08-20T05:54:05.546Z,69.20
2018-08-20T05:56:35.053Z,69.20
2018-08-20T05:59:04.294Z,68.80
2018-08-20T06:01:33.460Z,68.60
2018-08-20T06:04:02.606Z,69.00
2018-08-20T06:06:31.781Z,69.10
2018-08-20T06:09:01.017Z,68.90
2018-08-20T06:11:30.175Z,69.10
2018-08-20T06:13:59.325Z,69.10
2018-08-20T06:16:28.477Z,68.80
2018-08-20T06:18:57.633Z,68.80
2018-08-20T06:21:26.785Z,68.00
2018-08-20T06:23:56.584Z,68.10
2018-08-20T06:26:25.741Z,66.70
2018-08-20T06:28:54.933Z,66.50
2018-08-20T06:31:24.157Z,66.60
2018-08-20T06:33:53.526Z,66.30
2018-08-20T06:36:22.699Z,65.60
2018-08-20T06:38:51.842Z,65.20
2018-08-20T06:41:20.998Z,65.10
2018-08-20T06:43:50.158Z,65.30
2018-08-20T06:46:19.305Z,65.60
2018-08-20T06:48:48.654Z,65.10
2018-08-20T06:51:17.789Z,64.80
2018-08-20T06:53:46.945Z,64.50
2018-08-20T06:56:16.088Z,64.30
2018-08-20T06:58:45.253Z,63.70
2018-08-20T07:01:14.421Z,63.80
2018-08-20T07:03:43.581Z,64.20
2018-08-20T07:06:12.745Z,63.50
2018-08-20T07:08:42.001Z,62.60
2018-08-20T07:11:11.253Z,62.10
2018-08-20T07:13:40.589Z,62.30
2018-08-20T07:16:10.017Z,60.90
2018-08-20T07:18:39.178Z,60.90
2018-08-20T07:21:08.453Z,61.40
2018-08-20T07:23:37.746Z,61.50
2018-08-20T07:26:06.812Z,61.40
2018-08-20T07:28:36.020Z,58.60
2018-08-20T07:31:05.197Z,58.30
2018-08-20T07:33:34.379Z,58.20
2018-08-20T07:36:03.529Z,59.60
2018-08-20T07:38:32.685Z,59.50
2018-08-20T07:41:01.895Z,59.50
2018-08-20T07:43:31.063Z,58.30
2018-08-20T07:46:00.210Z,58.70
2018-08-20T07:48:29.357Z,57.30
2018-08-20T07:50:58.537Z,57.30
2018-08-20T07:53:27.674Z,55.70
2018-08-20T07:55:56.840Z,54.20
2018-08-20T07:58:25.977Z,54.80
2018-08-20T08:00:55.147Z,55.00
2018-08-20T08:03:29.224Z,55.40
2018-08-20T08:06:00.142Z,54.80
2018-08-20T08:08:29.387Z,54.90
2018-08-20T08:10:58.537Z,53.90
2018-08-20T08:13:27.933Z,53.60
2018-08-20T08:15:57.086Z,53.40
2018-08-20T08:18:26.257Z,53.70
2018-08-20T08:20:55.411Z,52.40
2018-08-20T08:23:24.553Z,51.30
2018-08-20T08:25:53.961Z,51.60
2018-08-20T08:28:23.113Z,51.40
2018-08-20T08:30:52.256Z,51.50
2018-08-20T08:33:21.418Z,52.00
2018-08-20T08:35:50.914Z,52.10
2018-08-20T08:38:20.061Z,52.00
2018-08-20T08:40:49.326Z,52.40
2018-08-20T08:43:18.465Z,52.90
2018-08-20T08:45:47.621Z,53.10
2018-08-20T08:48:16.788Z,53.10
2018-08-20T08:50:45.944Z,53.30
2018-08-20T08:53:15.095Z,52.60
2018-08-20T08:55:44.250Z,51.50
2018-08-20T08:58:13.386Z,51.90
2018-08-20T09:00:42.733Z,50.80
2018-08-20T09:03:11.766Z,49.20
2018-08-20T09:05:40.933Z,50.10
2018-08-20T09:08:10.087Z,51.80
2018-08-20T09:10:39.249Z,51.20
2018-08-20T09:13:08.393Z,49.80
2018-08-20T09:15:37.542Z,48.90
2018-08-20T09:18:07.410Z,45.40
2018-08-20T09:20:36.563Z,47.10
2018-08-20T09:23:06.233Z,50.10
2018-08-20T09:25:35.383Z,50.30
2018-08-20T09:28:04.557Z,49.10
2018-08-20T09:30:33.737Z,48.00
2018-08-20T09:33:02.869Z,47.60
2018-08-20T09:35:32.428Z,46.40
2018-08-20T09:38:01.593Z,47.80
2018-08-20T09:40:30.767Z,48.30
2018-08-20T09:42:59.920Z,50.00
2018-08-20T09:45:29.073Z,50.00
2018-08-20T09:47:58.229Z,46.80
2018-08-20T09:50:34.152Z,47.00
2018-08-20T09:53:03.310Z,48.20
2018-08-20T09:55:32.473Z,48.10
2018-08-20T09:58:01.645Z,49.50
2018-08-20T10:00:36.007Z,47.30
2018-08-20T10:03:05.167Z,48.30
2018-08-20T10:05:34.321Z,45.50
2018-08-20T10:08:03.486Z,47.00
2018-08-20T10:10:32.652Z,46.30
2018-08-20T10:13:02.167Z,45.40
2018-08-20T10:15:31.336Z,46.80
2018-08-20T10:18:00.485Z,46.60
2018-08-20T10:20:29.637Z,45.60
2018-08-20T10:22:58.789Z,45.60
2018-08-20T10:25:27.945Z,45.90
2018-08-20T10:27:57.117Z,46.20
2018-08-20T10:30:26.285Z,46.80
2018-08-20T10:32:55.440Z,47.40
2018-08-20T10:35:24.597Z,46.70
2018-08-20T10:37:53.892Z,46.70
2018-08-20T10:40:22.929Z,46.30
2018-08-20T10:42:52.079Z,45.10
2018-08-20T10:45:25.322Z,45.40
2018-08-20T10:47:54.477Z,45.70
2018-08-20T10:50:23.621Z,43.40
2018-08-20T10:52:52.930Z,43.30
2018-08-20T10:55:22.085Z,42.70
2018-08-20T10:57:51.233Z,45.00
2018-08-20T11:00:20.389Z,45.70
2018-08-20T11:02:49.541Z,46.70
2018-08-20T11:05:20.141Z,45.30
2018-08-20T11:07:49.297Z,44.70
2018-08-20T11:10:18.460Z,46.50
2018-08-20T11:12:47.629Z,45.60
2018-08-20T11:15:16.777Z,42.10
2018-08-20T11:17:45.933Z,41.60
2018-08-20T11:20:17.044Z,43.00
2018-08-20T11:22:46.229Z,44.40
2018-08-20T11:25:15.657Z,43.20
2018-08-20T11:27:44.871Z,43.20
2018-08-20T11:30:14.985Z,42.70
2018-08-20T11:32:44.269Z,46.20
2018-08-20T11:35:13.408Z,43.80
2018-08-20T11:37:42.754Z,45.00
2018-08-20T11:40:11.913Z,44.40
2018-08-20T11:42:41.061Z,42.30
2018-08-20T11:45:13.285Z,43.00
2018-08-20T11:47:43.245Z,43.40
2018-08-20T11:50:12.401Z,42.40
2018-08-20T11:52:41.581Z,42.40
2018-08-20T11:55:10.731Z,43.00
2018-08-20T11:57:39.898Z,45.20
2018-08-20T12:00:10.845Z,44.80
2018-08-20T12:02:40.250Z,43.10
2018-08-20T12:05:10.289Z,41.90
2018-08-20T12:07:39.536Z,44.40
2018-08-20T12:10:09.945Z,43.30
2018-08-20T12:12:39.809Z,43.40
2018-08-20T12:15:11.889Z,45.00
2018-08-20T12:17:41.781Z,44.70
2018-08-20T12:20:10.973Z,43.80
2018-08-20T12:22:40.690Z,44.30
2018-08-20T12:25:12.853Z,42.60
2018-08-20T12:27:42.030Z,44.40
2018-08-20T12:30:12.757Z,43.40
2018-08-20T12:32:42.193Z,44.00
2018-08-20T12:35:11.368Z,43.20
2018-08-20T12:37:41.300Z,42.70
2018-08-20T12:40:10.506Z,42.70
2018-08-20T12:42:39.607Z,40.60
2018-08-20T12:45:08.893Z,42.10
2018-08-20T12:47:38.037Z,43.00
2018-08-20T12:50:13.769Z,42.40
2018-08-20T12:52:42.924Z,42.60
2018-08-20T12:55:12.079Z,43.40
2018-08-20T12:57:41.229Z,41.80
2018-08-20T13:00:10.394Z,43.90
2018-08-20T13:02:39.543Z,43.30
2018-08-20T13:05:08.745Z,42.20
2018-08-20T13:07:37.913Z,42.00
2018-08-20T13:10:07.133Z,42.00
2018-08-20T13:12:36.369Z,42.60
2018-08-20T13:15:05.725Z,43.30
2018-08-20T13:17:34.889Z,41.90
2018-08-20T13:20:04.533Z,41.10
2018-08-20T13:22:33.677Z,41.60
2018-08-20T13:25:03.029Z,42.10
2018-08-20T13:27:32.313Z,41.80
2018-08-20T13:30:01.481Z,44.40
2018-08-20T13:32:30.645Z,44.00
2018-08-20T13:34:59.810Z,43.70
2018-08-20T13:37:28.997Z,42.70
2018-08-20T13:39:58.305Z,43.00
2018-08-20T13:42:27.465Z,43.40
2018-08-20T13:44:56.641Z,42.30
2018-08-20T13:47:25.797Z,44.60
2018-08-20T13:50:00.516Z,43.70
2018-08-20T13:52:29.694Z,43.50
2018-08-20T13:54:58.841Z,43.10
2018-08-20T13:57:31.537Z,43.10
2018-08-20T14:00:00.686Z,42.80
2018-08-20T14:02:29.841Z,43.00
2018-08-20T14:04:58.997Z,43.10
2018-08-20T14:07:28.146Z,41.00
2018-08-20T14:09:57.305Z,41.30
2018-08-20T14:12:26.493Z,42.50
2018-08-20T14:14:55.649Z,41.80
2018-08-20T14:17:28.021Z,41.70
2018-08-20T14:19:57.179Z,41.30
2018-08-20T14:22:26.385Z,42.30
2018-08-20T14:24:55.540Z,42.90
2018-08-20T14:27:24.693Z,43.00
2018-08-20T14:29:53.854Z,42.80
2018-08-20T14:32:23.457Z,43.10
2018-08-20T14:34:52.753Z,44.10
2018-08-20T14:37:21.913Z,44.60
2018-08-20T14:39:51.357Z,44.50
2018-08-20T14:42:20.518Z,43.90
2018-08-20T14:44:49.668Z,43.50
2018-08-20T14:47:18.829Z,43.70
2018-08-20T14:49:47.986Z,42.80
2018-08-20T14:52:17.129Z,44.50
2018-08-20T14:54:46.297Z,43.50
2018-08-20T14:57:15.441Z,43.60
2018-08-20T14:59:44.599Z,43.20
2018-08-20T15:02:13.757Z,44.50
2018-08-20T15:04:42.910Z,43.70
2018-08-20T15:07:12.072Z,44.30
2018-08-20T15:09:41.282Z,43.30
2018-08-20T15:12:10.470Z,44.30
2018-08-20T15:14:39.624Z,45.00
2018-08-20T15:17:08.757Z,45.60
2018-08-20T15:19:37.910Z,43.70
2018-08-20T15:22:07.078Z,43.90
2018-08-20T15:24:36.218Z,44.30
2018-08-20T15:27:05.385Z,45.50
2018-08-20T15:29:34.541Z,45.70
2018-08-20T15:32:03.740Z,46.60
2018-08-20T15:34:32.882Z,47.10
2018-08-20T15:37:02.505Z,45.70
2018-08-20T15:39:31.736Z,45.40
2018-08-20T15:42:01.096Z,45.60
2018-08-20T15:44:30.241Z,46.20
2018-08-20T15:46:59.397Z,46.20
2018-08-20T15:49:28.549Z,46.20
2018-08-20T15:51:57.989Z,45.60
2018-08-20T15:54:27.142Z,45.40
2018-08-20T15:56:56.286Z,45.70
2018-08-20T15:59:25.441Z,46.30
2018-08-20T16:01:54.601Z,46.60
2018-08-20T16:04:23.757Z,46.10
2018-08-20T16:06:53.047Z,45.50
2018-08-20T16:09:22.079Z,46.00
2018-08-20T16:11:51.265Z,46.40
2018-08-20T16:14:20.429Z,45.50
2018-08-20T16:16:49.581Z,45.50
2018-08-20T16:19:18.753Z,45.40
2018-08-20T16:21:47.918Z,46.30
2018-08-20T16:24:17.081Z,46.20
2018-08-20T16:26:46.699Z,46.80
2018-08-20T16:29:15.699Z,45.90
2018-08-20T16:31:44.845Z,46.70
2018-08-20T16:34:14.012Z,46.10
2018-08-20T16:36:43.190Z,46.60
2018-08-20T16:39:13.348Z,46.40
2018-08-20T16:41:42.515Z,45.50
2018-08-20T16:44:11.885Z,45.30
2018-08-20T16:46:41.051Z,46.10
2018-08-20T16:49:11.445Z,46.40
2018-08-20T16:51:40.594Z,46.40
2018-08-20T16:54:09.757Z,46.40
2018-08-20T16:56:38.900Z,48.20
2018-08-20T16:59:08.066Z,46.60
2018-08-20T17:01:37.222Z,46.70
2018-08-20T17:04:21.127Z,47.10
2018-08-20T17:06:50.749Z,47.10
2018-08-20T17:09:19.899Z,47.80
2018-08-20T17:11:49.041Z,47.90
2018-08-20T17:14:18.185Z,48.00
2018-08-20T17:16:47.337Z,47.50
2018-08-20T17:19:16.501Z,47.00
2018-08-20T17:21:45.653Z,47.20
2018-08-20T17:24:24.629Z,48.40
2018-08-20T17:26:54.001Z,49.90
2018-08-20T17:29:23.757Z,48.70
2018-08-20T17:31:52.929Z,48.90
2018-08-20T17:34:22.109Z,49.20
2018-08-20T17:36:51.262Z,49.50
2018-08-20T17:39:20.409Z,50.10
2018-08-20T17:41:49.917Z,50.50
2018-08-20T17:44:21.254Z,48.90
2018-08-20T17:46:50.434Z,48.50
2018-08-20T17:49:25.021Z,48.40
2018-08-20T17:51:54.389Z,49.70
2018-08-20T17:54:24.213Z,50.40
2018-08-20T17:56:53.400Z,50.90
2018-08-20T17:59:24.538Z,50.80
2018-08-20T18:01:53.753Z,49.70
2018-08-20T18:04:22.985Z,50.30
2018-08-20T18:06:55.297Z,51.40
2018-08-20T18:09:24.477Z,52.00
2018-08-20T18:11:54.981Z,51.80
2018-08-20T18:14:25.387Z,51.80
2018-08-20T18:16:54.589Z,51.90
2018-08-20T18:19:24.057Z,51.90
2018-08-20T18:21:53.218Z,52.10
2018-08-20T18:24:22.945Z,51.90
2018-08-20T18:26:56.076Z,51.60
2018-08-20T18:29:25.289Z,51.60
2018-08-20T18:31:57.397Z,51.40
2018-08-20T18:34:26.616Z,51.90
2018-08-20T18:36:55.788Z,51.20
2018-08-20T18:39:25.223Z,52.20
2018-08-20T18:42:01.974Z,52.70
2018-08-20T18:44:31.150Z,53.00
2018-08-20T18:47:00.340Z,52.90
2018-08-20T18:49:29.568Z,52.80
2018-08-20T18:52:07.281Z,53.00
2018-08-20T18:54:41.259Z,53.20
2018-08-20T18:57:10.481Z,53.40
2018-08-20T18:59:40.424Z,53.70
2018-08-20T19:02:17.953Z,53.80
2018-08-20T19:04:48.639Z,53.90
2018-08-20T19:07:18.065Z,54.50
2018-08-20T19:09:50.633Z,54.60
2018-08-20T19:12:19.794Z,54.90
2018-08-20T19:14:48.969Z,55.10
2018-08-20T19:17:23.496Z,54.80
2018-08-20T19:19:53.429Z,54.70
2018-08-20T19:22:27.331Z,54.70
2018-08-20T19:24:56.596Z,54.70
2018-08-20T19:27:32.372Z,54.70
2018-08-20T19:30:15.028Z,54.90
2018-08-20T19:32:44.317Z,55.00
2018-08-20T19:35:13.529Z,54.30
2018-08-20T19:37:45.813Z,54.60
2018-08-20T19:40:14.970Z,54.70
2018-08-20T19:42:44.249Z,54.20
2018-08-20T19:45:14.070Z,54.30
2018-08-20T19:47:43.229Z,54.30
2018-08-20T19:50:13.186Z,54.70
2018-08-20T19:52:42.370Z,54.70
2018-08-20T19:55:12.697Z,54.30
2018-08-20T19:57:42.180Z,55.00
2018-08-20T20:00:13.977Z,55.60
2018-08-20T20:02:44.509Z,55.10
2018-08-20T20:05:15.617Z,54.20
2018-08-20T20:07:54.532Z,54.60
2018-08-20T20:10:23.817Z,53.90
2018-08-20T20:12:53.054Z,54.70
2018-08-20T20:15:23.073Z,54.70
2018-08-20T20:17:52.765Z,54.50
2018-08-20T20:20:22.549Z,53.30
2018-08-20T20:22:51.809Z,54.00
2018-08-20T20:25:21.147Z,54.40
2018-08-20T20:27:50.373Z,54.90
2018-08-20T20:30:19.648Z,54.90
2018-08-20T20:32:48.833Z,54.00
2018-08-20T20:35:18.180Z,54.70
2018-08-20T20:37:47.524Z,54.60
2018-08-20T20:40:16.869Z,54.50
2018-08-20T20:42:46.054Z,55.00
2018-08-20T20:45:15.228Z,54.90
2018-08-20T20:47:44.549Z,55.50
2018-08-20T20:50:13.714Z,55.30
2018-08-20T20:52:43.013Z,54.80
2018-08-20T20:55:12.069Z,54.80
2018-08-20T20:57:41.249Z,55.40
2018-08-20T21:00:11.094Z,54.90
2018-08-20T21:03:43.310Z,55.10
2018-08-20T21:06:12.478Z,55.40
2018-08-20T21:08:46.602Z,55.20
2018-08-20T21:11:16.913Z,55.50
2018-08-20T21:13:46.385Z,55.60
2018-08-20T21:16:16.662Z,55.80
2018-08-20T21:19:01.234Z,55.50
2018-08-20T21:21:30.925Z,55.70
2018-08-20T21:24:00.098Z,55.70
2018-08-20T21:26:29.250Z,55.40
2018-08-20T21:28:58.422Z,54.90
2018-08-20T21:31:28.856Z,55.60
2018-08-20T21:34:00.335Z,55.00
2018-08-20T21:36:29.513Z,54.60
2018-08-20T21:38:58.668Z,54.80
2018-08-20T21:41:29.001Z,55.00
2018-08-20T21:45:33.957Z,55.60
2018-08-20T21:49:06.581Z,55.00
2018-08-20T21:51:42.437Z,55.00
2018-08-20T21:54:11.634Z,55.30
2018-08-20T21:56:50.789Z,55.90
2018-08-20T21:59:20.005Z,56.00
2018-08-20T22:01:49.241Z,56.10
2018-08-20T22:04:18.426Z,56.10
2018-08-20T22:06:47.905Z,56.20
2018-08-20T22:09:17.130Z,56.40
2018-08-20T22:11:46.301Z,56.50
2018-08-20T22:14:15.494Z,56.40
2018-08-20T22:16:44.649Z,56.70
2018-08-20T22:19:13.834Z,57.00
2018-08-20T22:21:43.000Z,56.50
2018-08-20T22:24:12.177Z,56.80
2018-08-20T22:26:47.078Z,56.90
2018-08-20T22:29:16.233Z,57.20
2018-08-20T22:32:02.889Z,57.70
2018-08-20T22:34:32.077Z,57.40
2018-08-20T22:37:05.723Z,57.60
2018-08-20T22:39:34.956Z,57.90
2018-08-20T22:42:04.085Z,57.60
2018-08-20T22:44:33.245Z,58.20
2018-08-20T22:47:02.441Z,58.40
2018-08-20T22:49:31.636Z,58.90
2018-08-20T22:52:00.805Z,58.90
2018-08-20T22:54:30.001Z,58.50
2018-08-20T22:56:59.168Z,58.70
2018-08-20T22:59:29.010Z,58.60
2018-08-20T23:01:58.180Z,58.70
2018-08-20T23:04:27.445Z,59.00
2018-08-20T23:06:56.604Z,58.30
2018-08-20T23:09:32.677Z,58.90
2018-08-20T23:12:01.834Z,58.90
2018-08-20T23:14:31.129Z,59.20
2018-08-20T23:17:00.289Z,59.50
2018-08-20T23:19:30.753Z,58.70
2018-08-20T23:21:59.938Z,59.50
2018-08-20T23:24:29.121Z,59.30
2018-08-20T23:26:58.278Z,59.70
2018-08-20T23:29:27.444Z,59.60
2018-08-20T23:31:56.625Z,60.20
2018-08-20T23:34:25.853Z,59.80
2018-08-20T23:36:55.050Z,59.60
2018-08-20T23:39:24.221Z,60.00
2018-08-20T23:41:53.410Z,60.70
2018-08-20T23:44:22.594Z,60.60
2018-08-20T23:46:51.745Z,61.10
2018-08-20T23:49:20.932Z,61.20
2018-08-20T23:51:50.101Z,61.20
2018-08-20T23:54:19.293Z,60.70
2018-08-20T23:56:48.469Z,61.40
2018-08-20T23:59:17.646Z,61.50
